createdAt,value
2019-01-25T00:01:41.661Z,37.07
2019-01-25T00:04:08.120Z,40.40
2019-01-25T00:06:34.586Z,35.83
2019-01-25T00:09:01.037Z,40.43
2019-01-25T00:11:27.521Z,37.17
2019-01-25T00:13:53.983Z,38.37
2019-01-25T00:16:20.461Z,39.03
2019-01-25T00:18:47.022Z,37.73
2019-01-25T00:21:13.599Z,36.63
2019-01-25T00:23:40.051Z,37.57
2019-01-25T00:26:06.536Z,37.07
2019-01-25T00:28:33.012Z,35.90
2019-01-25T00:30:59.480Z,38.83
2019-01-25T00:33:25.847Z,38.57
2019-01-25T00:35:52.195Z,35.40
2019-01-25T00:38:18.677Z,36.30
2019-01-25T00:40:45.250Z,37.87
2019-01-25T00:43:11.645Z,37.67
2019-01-25T00:45:38.300Z,38.43
2019-01-25T00:48:04.865Z,35.27
2019-01-25T00:50:31.310Z,37.60
2019-01-25T00:52:57.694Z,38.47
2019-01-25T00:55:24.135Z,33.30
2019-01-25T00:57:50.625Z,35.43
2019-01-25T01:00:19.007Z,33.10
2019-01-25T01:02:45.587Z,34.57
2019-01-25T01:05:12.235Z,33.50
2019-01-25T01:07:38.707Z,31.77
2019-01-25T01:10:06.502Z,33.13
2019-01-25T01:12:32.969Z,31.83
2019-01-25T01:14:59.593Z,32.00
2019-01-25T01:17:26.157Z,32.20
2019-01-25T01:19:52.627Z,30.97
2019-01-25T01:22:19.087Z,32.20
2019-01-25T01:24:45.760Z,31.50
2019-01-25T01:27:12.357Z,29.60
2019-01-25T01:29:38.764Z,30.63
2019-01-25T01:32:05.227Z,28.83
2019-01-25T01:34:31.791Z,30.77
2019-01-25T01:36:58.249Z,30.90
2019-01-25T01:39:24.732Z,31.03
2019-01-25T01:41:51.197Z,31.17
2019-01-25T01:44:17.809Z,31.87
2019-01-25T01:46:44.274Z,28.63
2019-01-25T01:49:10.749Z,30.40
2019-01-25T01:51:37.321Z,30.93
2019-01-25T01:54:03.777Z,31.90
2019-01-25T01:56:30.344Z,31.47
2019-01-25T01:58:56.813Z,31.30
2019-01-25T02:01:23.417Z,31.60
2019-01-25T02:03:49.794Z,30.63
2019-01-25T02:06:16.400Z,32.67
2019-01-25T02:08:42.865Z,33.27
2019-01-25T02:11:09.254Z,31.73
2019-01-25T02:13:35.809Z,32.33
2019-01-25T02:16:02.238Z,31.40
2019-01-25T02:18:28.697Z,34.57
2019-01-25T02:20:55.530Z,33.53
2019-01-25T02:23:21.875Z,31.30
2019-01-25T02:25:48.351Z,33.13
2019-01-25T02:28:14.879Z,31.00
2019-01-25T02:30:41.364Z,30.97
2019-01-25T02:33:08.017Z,31.47
2019-01-25T02:35:34.367Z,34.67
2019-01-25T02:38:00.941Z,35.10
2019-01-25T02:40:27.411Z,33.93
2019-01-25T02:42:54.113Z,32.10
2019-01-25T02:45:20.568Z,33.10
2019-01-25T02:47:47.130Z,35.47
2019-01-25T02:50:14.411Z,35.57
2019-01-25T02:52:40.972Z,35.53
2019-01-25T02:55:08.429Z,34.87
2019-01-25T02:57:34.914Z,32.60
2019-01-25T03:00:01.681Z,31.00
2019-01-25T03:02:28.140Z,34.07
2019-01-25T03:04:54.505Z,33.97
2019-01-25T03:07:21.000Z,31.30
2019-01-25T03:09:47.570Z,32.80
2019-01-25T03:12:14.052Z,33.60
2019-01-25T03:14:40.603Z,32.77
2019-01-25T03:17:07.197Z,32.37
2019-01-25T03:19:33.663Z,31.97
2019-01-25T03:22:00.225Z,32.93
2019-01-25T03:24:26.716Z,32.20
2019-01-25T03:26:53.199Z,31.40
2019-01-25T03:29:19.696Z,32.33
2019-01-25T03:31:46.158Z,31.47
2019-01-25T03:34:12.640Z,33.40
2019-01-25T03:36:39.192Z,33.43
2019-01-25T03:39:06.478Z,33.50
2019-01-25T03:41:32.945Z,30.93
2019-01-25T03:43:59.443Z,32.67
2019-01-25T03:46:26.004Z,32.73
2019-01-25T03:48:52.387Z,32.37
2019-01-25T03:51:18.943Z,33.03
2019-01-25T03:53:45.521Z,32.53
2019-01-25T03:56:11.978Z,33.93
2019-01-25T03:58:38.457Z,32.63
2019-01-25T04:01:04.910Z,34.67
2019-01-25T04:03:31.378Z,32.70
2019-01-25T04:05:57.841Z,31.93
2019-01-25T04:08:24.420Z,33.60
2019-01-25T04:10:50.762Z,32.53
2019-01-25T04:13:17.337Z,34.30
2019-01-25T04:15:43.833Z,34.97
2019-01-25T04:18:10.381Z,31.57
2019-01-25T04:20:36.983Z,33.47
2019-01-25T04:23:03.430Z,35.33
2019-01-25T04:25:30.035Z,34.47
2019-01-25T04:27:56.524Z,33.27
2019-01-25T04:30:24.016Z,36.30
2019-01-25T04:32:50.455Z,33.97
2019-01-25T04:35:16.952Z,35.37
2019-01-25T04:37:43.404Z,36.70
2019-01-25T04:40:11.282Z,37.03
2019-01-25T04:42:37.648Z,36.17
2019-01-25T04:45:05.711Z,34.57
2019-01-25T04:47:32.151Z,34.00
2019-01-25T04:49:58.638Z,35.70
2019-01-25T04:52:25.076Z,34.73
2019-01-25T04:54:51.523Z,35.40
2019-01-25T04:57:17.992Z,33.50
2019-01-25T04:59:44.660Z,34.57
2019-01-25T05:02:11.135Z,32.90
2019-01-25T05:04:37.683Z,35.40
2019-01-25T05:07:04.359Z,34.60
2019-01-25T05:09:33.618Z,33.40
2019-01-25T05:12:00.063Z,35.80
2019-01-25T05:14:26.523Z,36.57
2019-01-25T05:16:52.907Z,36.83
2019-01-25T05:19:19.352Z,37.73
2019-01-25T05:21:45.760Z,38.10
2019-01-25T05:24:12.312Z,37.70
2019-01-25T05:26:38.828Z,37.07
2019-01-25T05:29:05.374Z,36.03
2019-01-25T05:31:32.356Z,35.10
2019-01-25T05:33:59.302Z,38.97
2019-01-25T05:36:25.763Z,35.87
2019-01-25T05:38:52.144Z,39.93
2019-01-25T05:41:18.743Z,37.90
2019-01-25T05:43:45.315Z,38.20
2019-01-25T05:46:11.799Z,39.63
2019-01-25T05:48:38.247Z,37.60
2019-01-25T05:51:04.907Z,37.93
2019-01-25T05:53:31.377Z,38.63
2019-01-25T05:55:57.866Z,37.50
2019-01-25T05:58:24.457Z,35.23
2019-01-25T06:00:50.918Z,37.23
2019-01-25T06:03:17.382Z,39.53
2019-01-25T06:05:43.892Z,36.63
2019-01-25T06:08:13.158Z,36.60
2019-01-25T06:10:39.623Z,36.27
2019-01-25T06:13:06.003Z,38.97
2019-01-25T06:15:32.561Z,36.20
2019-01-25T06:17:59.786Z,36.93
2019-01-25T06:20:26.250Z,38.50
2019-01-25T06:22:54.526Z,39.33
2019-01-25T06:25:20.917Z,40.13
2019-01-25T06:27:47.451Z,36.87
2019-01-25T06:30:14.657Z,37.07
2019-01-25T06:32:41.240Z,36.37
2019-01-25T06:35:08.696Z,37.53
2019-01-25T06:37:35.169Z,37.77
2019-01-25T06:40:02.137Z,36.33
2019-01-25T06:42:28.627Z,36.33
2019-01-25T06:44:55.208Z,38.57
2019-01-25T06:47:21.659Z,37.53
2019-01-25T06:49:48.156Z,38.07
2019-01-25T06:52:14.529Z,36.47
2019-01-25T06:54:40.986Z,38.03
2019-01-25T06:57:09.334Z,40.47
2019-01-25T06:59:36.044Z,38.33
2019-01-25T07:02:04.552Z,38.20
2019-01-25T07:04:31.058Z,36.53
2019-01-25T07:06:57.729Z,35.93
2019-01-25T07:09:24.187Z,38.33
2019-01-25T07:11:51.804Z,36.87
2019-01-25T07:14:18.527Z,36.73
2019-01-25T07:16:44.979Z,38.70
2019-01-25T07:19:11.478Z,36.13
2019-01-25T07:21:37.926Z,38.87
2019-01-25T07:24:04.518Z,36.93
2019-01-25T07:26:31.013Z,35.90
2019-01-25T07:28:57.495Z,37.83
2019-01-25T07:31:23.992Z,36.30
2019-01-25T07:33:50.535Z,39.37
2019-01-25T07:36:17.023Z,33.30
2019-01-25T07:38:43.508Z,37.03
2019-01-25T07:41:10.082Z,38.20
2019-01-25T07:43:36.540Z,39.03
2019-01-25T07:46:03.218Z,36.77
2019-01-25T07:48:29.668Z,37.63
2019-01-25T07:50:56.234Z,37.70
2019-01-25T07:53:22.835Z,39.30
2019-01-25T07:55:49.351Z,37.70
2019-01-25T07:58:15.921Z,35.90
2019-01-25T08:00:42.514Z,36.53
2019-01-25T08:03:09.145Z,36.87
2019-01-25T08:05:35.741Z,36.83
2019-01-25T08:08:02.318Z,35.93
2019-01-25T08:10:28.988Z,39.40
2019-01-25T08:12:55.440Z,38.30
2019-01-25T08:15:23.725Z,37.87
2019-01-25T08:17:50.288Z,36.20
2019-01-25T08:20:16.765Z,36.10
2019-01-25T08:22:43.329Z,35.20
2019-01-25T08:25:09.775Z,35.77
2019-01-25T08:27:36.324Z,41.60
2019-01-25T08:30:04.740Z,37.50
2019-01-25T08:32:31.246Z,38.17
2019-01-25T08:34:57.718Z,39.70
2019-01-25T08:37:24.214Z,41.63
2019-01-25T08:39:50.660Z,36.30
2019-01-25T08:42:17.136Z,37.67
2019-01-25T08:44:43.716Z,35.67
2019-01-25T08:47:10.272Z,38.73
2019-01-25T08:49:36.811Z,35.37
2019-01-25T08:52:03.496Z,36.13
2019-01-25T08:54:30.051Z,46.15
2019-01-25T08:56:56.678Z,37.97
2019-01-25T08:59:23.109Z,32.60
2019-01-25T09:01:49.916Z,35.53
2019-01-25T09:04:16.555Z,34.60
2019-01-25T09:06:43.015Z,33.40
2019-01-25T09:09:09.482Z,31.53
2019-01-25T09:11:36.067Z,32.23
2019-01-25T09:14:02.631Z,32.33
2019-01-25T09:16:29.089Z,32.87
2019-01-25T09:18:55.563Z,31.67
2019-01-25T09:21:22.014Z,34.37
2019-01-25T09:23:48.602Z,33.13
2019-01-25T09:26:15.177Z,31.70
2019-01-25T09:28:41.754Z,30.00
2019-01-25T09:31:08.316Z,31.33
2019-01-25T09:33:34.909Z,31.00
2019-01-25T09:36:01.363Z,30.77
2019-01-25T09:38:27.939Z,31.10
2019-01-25T09:40:54.411Z,28.67
2019-01-25T09:43:20.899Z,28.80
2019-01-25T09:45:47.460Z,27.67
2019-01-25T09:48:13.843Z,25.30
2019-01-25T09:50:40.302Z,27.03
2019-01-25T09:53:06.794Z,29.57
2019-01-25T09:55:33.490Z,26.67
2019-01-25T09:58:01.860Z,26.77
2019-01-25T10:00:30.031Z,28.37
2019-01-25T10:02:56.641Z,27.03
2019-01-25T10:05:23.196Z,28.03
2019-01-25T10:07:49.758Z,26.03
2019-01-25T10:10:17.859Z,27.40
2019-01-25T10:12:44.325Z,28.37
2019-01-25T10:15:12.622Z,27.00
2019-01-25T10:17:38.987Z,26.93
2019-01-25T10:20:05.383Z,27.10
2019-01-25T10:22:32.012Z,27.10
2019-01-25T10:24:58.471Z,27.73
2019-01-25T10:27:24.982Z,28.10
2019-01-25T10:29:51.542Z,23.93
2019-01-25T10:32:18.003Z,27.10
2019-01-25T10:34:44.388Z,25.57
2019-01-25T10:37:10.962Z,25.63
2019-01-25T10:39:37.539Z,26.53
2019-01-25T10:42:04.038Z,25.60
2019-01-25T10:44:30.448Z,25.53
2019-01-25T10:46:57.025Z,25.77
2019-01-25T10:49:23.493Z,28.20
2019-01-25T10:51:50.168Z,26.67
2019-01-25T10:54:16.733Z,25.57
2019-01-25T10:56:43.195Z,25.37
2019-01-25T10:59:09.705Z,23.57
2019-01-25T11:01:36.277Z,22.07
2019-01-25T11:04:03.132Z,18.13
2019-01-25T11:06:29.610Z,17.77
2019-01-25T11:08:56.164Z,18.70
2019-01-25T11:11:22.740Z,20.60
2019-01-25T11:13:49.208Z,21.00
2019-01-25T11:16:15.684Z,19.83
2019-01-25T11:18:42.236Z,19.80
2019-01-25T11:21:08.711Z,18.07
2019-01-25T11:23:35.490Z,19.33
2019-01-25T11:26:02.082Z,19.93
2019-01-25T11:28:28.479Z,21.03
2019-01-25T11:30:54.872Z,19.17
2019-01-25T11:33:21.266Z,18.73
2019-01-25T11:35:47.843Z,17.73
2019-01-25T11:38:14.218Z,20.73
2019-01-25T11:40:41.670Z,19.93
2019-01-25T11:43:09.161Z,17.07
2019-01-25T11:45:35.955Z,17.00
2019-01-25T11:48:04.411Z,18.33
2019-01-25T11:50:30.868Z,16.80
2019-01-25T11:52:57.238Z,17.93
2019-01-25T11:55:23.697Z,19.13
2019-01-25T11:57:50.058Z,18.53
2019-01-25T12:00:18.037Z,18.87
2019-01-25T12:02:44.426Z,15.33
2019-01-25T12:05:12.440Z,19.30
2019-01-25T12:07:38.895Z,17.20
2019-01-25T12:10:07.209Z,19.63
2019-01-25T12:12:33.931Z,19.33
2019-01-25T12:15:00.586Z,19.10
2019-01-25T12:17:27.014Z,18.73
2019-01-25T12:19:53.584Z,19.23
2019-01-25T12:22:20.114Z,19.70
2019-01-25T12:24:46.551Z,18.00
2019-01-25T12:27:13.071Z,18.43
2019-01-25T12:29:39.656Z,17.80
2019-01-25T12:32:06.130Z,20.33
2019-01-25T12:34:32.690Z,18.77
2019-01-25T12:36:59.153Z,17.17
2019-01-25T12:39:25.672Z,18.03
2019-01-25T12:41:52.147Z,18.80
2019-01-25T12:44:18.763Z,18.60
2019-01-25T12:46:45.229Z,18.10
2019-01-25T12:49:11.808Z,19.13
2019-01-25T12:51:38.255Z,18.43
2019-01-25T12:54:04.755Z,19.50
2019-01-25T12:56:33.981Z,19.67
2019-01-25T12:59:00.465Z,17.97
2019-01-25T13:01:28.840Z,18.57
2019-01-25T13:03:55.457Z,20.87
2019-01-25T13:06:21.843Z,20.77
2019-01-25T13:08:48.345Z,16.50
2019-01-25T13:11:14.807Z,16.77
2019-01-25T13:13:41.207Z,14.90
2019-01-25T13:16:07.777Z,15.93
2019-01-25T13:18:34.213Z,19.33
2019-01-25T13:21:00.597Z,19.07
2019-01-25T13:23:26.988Z,19.90
2019-01-25T13:25:53.442Z,18.53
2019-01-25T13:28:20.033Z,20.13
2019-01-25T13:30:46.613Z,20.37
2019-01-25T13:33:13.102Z,18.87
2019-01-25T13:35:39.731Z,17.30
2019-01-25T13:38:06.114Z,18.43
2019-01-25T13:40:32.591Z,17.93
2019-01-25T13:42:59.030Z,18.97
2019-01-25T13:45:25.622Z,19.00
2019-01-25T13:47:52.289Z,20.50
2019-01-25T13:50:19.973Z,18.17
2019-01-25T13:52:46.636Z,18.50
2019-01-25T13:55:14.045Z,17.63
2019-01-25T13:57:40.714Z,17.33
2019-01-25T14:00:09.184Z,17.50
2019-01-25T14:02:35.633Z,18.00
2019-01-25T14:05:02.814Z,16.93
2019-01-25T14:07:29.275Z,15.97
2019-01-25T14:09:55.668Z,16.57
2019-01-25T14:12:22.120Z,16.10
2019-01-25T14:14:49.077Z,18.43
2019-01-25T14:17:15.621Z,19.03
2019-01-25T14:19:42.196Z,17.63
2019-01-25T14:22:08.566Z,18.60
2019-01-25T14:24:35.133Z,18.10
2019-01-25T14:27:01.667Z,17.00
2019-01-25T14:29:29.342Z,17.00
2019-01-25T14:31:56.114Z,18.23
2019-01-25T14:34:22.567Z,17.83
2019-01-25T14:36:49.162Z,18.13
2019-01-25T14:39:15.611Z,18.03
2019-01-25T14:41:42.116Z,23.20
2019-01-25T14:44:08.589Z,19.40
2019-01-25T14:46:35.101Z,20.10
2019-01-25T14:49:01.661Z,19.33
2019-01-25T14:51:28.046Z,19.17
2019-01-25T14:53:54.408Z,21.00
2019-01-25T14:56:20.867Z,18.23
2019-01-25T14:58:47.318Z,20.90
2019-01-25T15:01:13.978Z,19.47
2019-01-25T15:03:40.336Z,20.27
2019-01-25T15:06:06.769Z,20.13
2019-01-25T15:08:33.229Z,20.93
2019-01-25T15:10:59.788Z,20.00
2019-01-25T15:13:26.374Z,20.00
2019-01-25T15:15:52.916Z,20.07
2019-01-25T15:18:19.479Z,22.10
2019-01-25T15:20:45.958Z,21.60
2019-01-25T15:23:12.415Z,20.67
2019-01-25T15:25:38.966Z,21.90
2019-01-25T15:28:05.494Z,21.83
2019-01-25T15:30:32.172Z,21.40
2019-01-25T15:32:58.724Z,22.73
2019-01-25T15:35:25.404Z,22.43
2019-01-25T15:37:52.007Z,22.37
2019-01-25T15:40:19.265Z,22.63
2019-01-25T15:42:45.931Z,26.60
2019-01-25T15:45:13.722Z,25.67
2019-01-25T15:47:40.211Z,24.27
2019-01-25T15:50:08.569Z,23.50
2019-01-25T15:52:35.250Z,24.27
2019-01-25T15:55:02.510Z,23.50
2019-01-25T15:57:30.377Z,25.63
2019-01-25T15:59:57.063Z,25.83
2019-01-25T16:02:23.520Z,22.77
2019-01-25T16:04:50.060Z,26.53
2019-01-25T16:07:16.611Z,26.23
2019-01-25T16:09:43.086Z,25.27
2019-01-25T16:12:09.650Z,23.23
2019-01-25T16:14:36.105Z,25.23
2019-01-25T16:17:02.755Z,24.40
2019-01-25T16:19:29.219Z,24.43
2019-01-25T16:21:55.777Z,26.27
2019-01-25T16:24:22.253Z,25.13
2019-01-25T16:26:48.904Z,24.70
2019-01-25T16:29:15.391Z,24.33
2019-01-25T16:31:41.973Z,23.73
2019-01-25T16:34:08.616Z,24.60
2019-01-25T16:36:35.286Z,27.80
2019-01-25T16:39:03.891Z,25.07
2019-01-25T16:41:30.645Z,26.80
2019-01-25T16:43:57.320Z,25.73
2019-01-25T16:46:24.018Z,27.27
2019-01-25T16:48:50.681Z,24.93
2019-01-25T16:51:17.339Z,25.37
2019-01-25T16:53:44.213Z,25.47
2019-01-25T16:56:10.663Z,24.73
2019-01-25T16:58:37.329Z,26.27
2019-01-25T17:01:04.088Z,24.50
2019-01-25T17:03:30.664Z,25.27
2019-01-25T17:05:57.449Z,23.77
2019-01-25T17:08:24.011Z,25.53
2019-01-25T17:10:50.489Z,24.13
2019-01-25T17:13:16.948Z,25.47
2019-01-25T17:15:43.440Z,25.30
2019-01-25T17:18:10.092Z,25.97
2019-01-25T17:20:36.534Z,25.67
2019-01-25T17:23:02.992Z,30.13
2019-01-25T17:25:29.587Z,26.43
2019-01-25T17:27:57.084Z,25.67
2019-01-25T17:30:24.930Z,24.50
2019-01-25T17:32:52.290Z,25.03
2019-01-25T17:35:18.966Z,23.73
2019-01-25T17:37:45.640Z,23.80
2019-01-25T17:40:13.459Z,24.60
2019-01-25T17:42:40.334Z,24.57
2019-01-25T17:45:07.815Z,25.40
2019-01-25T17:47:34.403Z,24.63
2019-01-25T17:50:01.075Z,25.97
2019-01-25T17:52:27.880Z,27.23
2019-01-25T17:54:54.462Z,28.57
2019-01-25T17:57:21.143Z,27.20
2019-01-25T17:59:47.892Z,28.00
2019-01-25T18:02:14.881Z,28.33
2019-01-25T18:04:41.532Z,28.10
2019-01-25T18:07:08.218Z,25.63
2019-01-25T18:09:34.692Z,26.73
2019-01-25T18:12:01.380Z,24.93
2019-01-25T18:14:28.047Z,25.27
2019-01-25T18:16:54.846Z,25.70
2019-01-25T18:19:21.500Z,26.40
2019-01-25T18:21:48.374Z,26.13
2019-01-25T18:24:15.256Z,24.73
2019-01-25T18:26:42.039Z,25.73
2019-01-25T18:29:09.040Z,25.40
2019-01-25T18:31:35.993Z,24.50
2019-01-25T18:34:03.279Z,24.13
2019-01-25T18:36:30.250Z,23.53
2019-01-25T18:38:57.340Z,24.30
2019-01-25T18:41:24.208Z,25.07
2019-01-25T18:43:50.966Z,23.37
2019-01-25T18:46:17.860Z,24.63
2019-01-25T18:48:44.640Z,24.97
2019-01-25T18:51:11.403Z,28.93
2019-01-25T18:53:38.417Z,24.40
2019-01-25T18:56:05.691Z,28.43
2019-01-25T18:58:32.467Z,27.70
2019-01-25T19:00:59.320Z,33.47
2019-01-25T19:03:26.315Z,33.57
2019-01-25T19:05:53.078Z,29.93
2019-01-25T19:08:19.979Z,32.30
2019-01-25T19:10:46.931Z,30.50
2019-01-25T19:13:13.791Z,39.33
2019-01-25T19:15:40.684Z,38.03
2019-01-25T19:18:07.534Z,31.47
2019-01-25T19:20:34.337Z,30.80
2019-01-25T19:23:01.238Z,27.13
2019-01-25T19:25:28.270Z,23.20
2019-01-25T19:27:55.242Z,22.63
2019-01-25T19:30:23.415Z,22.50
2019-01-25T19:32:50.408Z,21.60
2019-01-25T19:35:17.414Z,18.83
2019-01-25T19:37:44.181Z,22.80
2019-01-25T19:40:12.568Z,22.57
2019-01-25T19:42:40.654Z,30.97
2019-01-25T19:45:11.980Z,25.97
2019-01-25T19:47:37.752Z,22.27
2019-01-25T19:50:06.117Z,21.57
2019-01-25T19:52:33.180Z,23.30
2019-01-25T19:55:00.097Z,20.20
2019-01-25T19:57:27.128Z,26.10
2019-01-25T19:59:54.020Z,21.20
2019-01-25T20:02:20.826Z,23.23
2019-01-25T20:04:47.726Z,20.00
2019-01-25T20:07:14.493Z,20.27
2019-01-25T20:09:41.438Z,19.03
2019-01-25T20:12:08.550Z,20.37
2019-01-25T20:14:35.609Z,20.67
2019-01-25T20:17:02.783Z,20.37
2019-01-25T20:19:29.841Z,19.90
2019-01-25T20:21:56.726Z,20.63
2019-01-25T20:24:23.784Z,16.43
2019-01-25T20:26:50.757Z,18.73
2019-01-25T20:29:17.655Z,18.27
2019-01-25T20:31:44.627Z,19.20
2019-01-25T20:34:11.503Z,21.93
2019-01-25T20:36:38.505Z,22.40
2019-01-25T20:39:05.935Z,22.43
2019-01-25T20:41:32.922Z,21.43
2019-01-25T20:44:00.089Z,20.47
2019-01-25T20:46:26.992Z,20.63
2019-01-25T20:48:53.959Z,20.27
2019-01-25T20:51:20.967Z,17.97
2019-01-25T20:53:47.823Z,16.57
2019-01-25T20:56:14.707Z,18.43
2019-01-25T20:58:41.587Z,19.70
2019-01-25T21:01:08.609Z,17.40
2019-01-25T21:03:35.565Z,17.67
2019-01-25T21:06:02.538Z,15.53
2019-01-25T21:08:29.517Z,17.77
2019-01-25T21:10:56.476Z,17.57
2019-01-25T21:13:23.375Z,19.20
2019-01-25T21:15:50.370Z,18.20
2019-01-25T21:18:17.253Z,16.70
2019-01-25T21:20:44.210Z,17.30
2019-01-25T21:23:11.017Z,17.23
2019-01-25T21:25:38.176Z,18.20
2019-01-25T21:28:05.200Z,16.67
2019-01-25T21:30:33.059Z,17.30
2019-01-25T21:32:59.936Z,17.30
2019-01-25T21:35:26.564Z,16.33
2019-01-25T21:37:53.538Z,16.10
2019-01-25T21:40:21.587Z,18.23
2019-01-25T21:42:48.496Z,17.13
2019-01-25T21:45:16.770Z,16.90
2019-01-25T21:47:43.844Z,16.63
2019-01-25T21:50:12.279Z,18.00
2019-01-25T21:52:39.238Z,16.87
2019-01-25T21:55:07.616Z,17.73
2019-01-25T21:57:34.405Z,17.33
2019-01-25T22:00:01.344Z,17.37
2019-01-25T22:02:28.097Z,17.73
2019-01-25T22:04:54.571Z,18.03
2019-01-25T22:07:21.243Z,16.77
2019-01-25T22:09:47.715Z,15.77
2019-01-25T22:12:14.387Z,16.23
2019-01-25T22:14:41.183Z,17.27
2019-01-25T22:17:07.730Z,17.87
2019-01-25T22:19:34.330Z,16.70
2019-01-25T22:22:00.897Z,17.63
2019-01-25T22:24:27.474Z,16.83
2019-01-25T22:26:54.042Z,16.17
2019-01-25T22:29:20.523Z,17.67
2019-01-25T22:31:46.988Z,15.40
2019-01-25T22:34:13.468Z,17.57
2019-01-25T22:36:40.252Z,15.87
2019-01-25T22:39:06.712Z,13.43
2019-01-25T22:41:33.176Z,12.90
2019-01-25T22:43:59.659Z,13.77
2019-01-25T22:46:26.212Z,14.30
2019-01-25T22:48:52.782Z,13.37
2019-01-25T22:51:19.168Z,13.23
2019-01-25T22:53:46.106Z,14.97
2019-01-25T22:56:12.818Z,14.03
2019-01-25T22:58:39.272Z,14.97
2019-01-25T23:01:07.663Z,13.40
2019-01-25T23:03:36.020Z,12.80
2019-01-25T23:06:04.406Z,12.33
2019-01-25T23:08:30.891Z,13.60
2019-01-25T23:10:57.350Z,12.37
2019-01-25T23:13:23.804Z,12.13
2019-01-25T23:15:50.389Z,11.33
2019-01-25T23:18:16.936Z,12.13
2019-01-25T23:20:43.327Z,11.00
2019-01-25T23:23:09.906Z,10.37
2019-01-25T23:25:36.354Z,9.97
2019-01-25T23:28:02.769Z,9.20
2019-01-25T23:30:29.328Z,9.03
2019-01-25T23:32:55.887Z,8.87
2019-01-25T23:35:22.398Z,9.73
2019-01-25T23:37:48.873Z,9.30
2019-01-25T23:40:15.324Z,8.27
2019-01-25T23:42:41.790Z,11.57
2019-01-25T23:45:08.241Z,9.73
2019-01-25T23:47:34.718Z,10.73
2019-01-25T23:50:01.499Z,10.67
2019-01-25T23:52:28.013Z,10.17
2019-01-25T23:54:54.361Z,9.83
2019-01-25T23:57:20.849Z,9.77
2019-01-25T23:59:47.305Z,10.23
